Time;durP1;ratioP1;P1;durP2;ratioP2;P2;SDS_P1;SDS_P2;PMS_P1;PMS_P2;Temp;Humidity;BMP_temperature;BMP_pressure;BME280_temperature;BME280_humidity;BME280_pressure;Samples;Min_cycle;Max_cycle;Signal;HPM_P1;HPM_P2
2021/10/01 00:01:48;;;;;;;5.60;1.40;;;;;;;13.24;64.20;101790.13;5108499;28;20092;-56
2021/10/01 00:04:13;;;;;;;4.40;1.40;;;;;;;13.29;64.11;101792.75;5087711;28;20029;-57
2021/10/01 00:06:39;;;;;;;3.85;1.35;;;;;;;13.25;64.30;101787.50;5106972;28;20036;-57
2021/10/01 00:09:05;;;;;;;8.20;1.48;;;;;;;13.33;64.18;101782.25;5101972;28;20139;-57
2021/10/01 00:11:31;;;;;;;6.47;1.80;;;;;;;13.33;64.27;101782.25;5104013;28;20487;-55
2021/10/01 00:13:57;;;;;;;9.25;2.10;;;;;;;13.34;64.18;101778.72;5105916;28;20039;-55
2021/10/01 00:16:23;;;;;;;4.32;1.40;;;;;;;13.27;64.50;101769.03;5109467;28;20032;-57
2021/10/01 00:18:48;;;;;;;4.55;1.52;;;;;;;13.29;64.53;101769.00;5086280;28;20046;-58
2021/10/01 00:21:14;;;;;;;7.53;1.65;;;;;;;13.30;64.74;101776.97;5099854;28;20029;-58
2021/10/01 00:23:39;;;;;;;8.80;1.70;;;;;;;13.35;64.28;101771.72;5094318;28;20108;-57
2021/10/01 00:26:05;;;;;;;4.40;1.60;;;;;;;13.29;65.02;101774.28;5115534;28;20089;-58
2021/10/01 00:28:30;;;;;;;5.25;1.38;;;;;;;13.34;64.92;101757.59;5103418;28;20028;-56
2021/10/01 00:30:56;;;;;;;4.47;1.42;;;;;;;13.30;64.94;101766.41;5089600;28;20077;-56
2021/10/01 00:33:21;;;;;;;6.18;1.50;;;;;;;13.34;64.76;101765.53;5108363;28;20030;-56
2021/10/01 00:35:47;;;;;;;5.10;1.60;;;;;;;13.26;65.15;101767.25;5090512;28;20083;-57
2021/10/01 00:38:12;;;;;;;2.45;1.48;;;;;;;13.24;65.33;101761.09;5101399;28;20035;-56
2021/10/01 00:40:38;;;;;;;5.97;1.40;;;;;;;13.22;65.53;101765.50;5090484;28;20071;-56
2021/10/01 00:43:03;;;;;;;8.93;1.70;;;;;;;13.22;65.93;101760.22;5098778;28;20048;-58
2021/10/01 00:45:29;;;;;;;6.95;1.52;;;;;;;13.26;65.82;101746.13;5112032;28;20574;-57
2021/10/01 00:47:54;;;;;;;6.43;1.38;;;;;;;13.24;66.25;101754.03;5101666;28;20051;-56
2021/10/01 00:50:20;;;;;;;5.75;1.70;;;;;;;13.26;66.14;101748.78;5096543;28;20032;-56
2021/10/01 00:52:48;;;;;;;5.72;1.48;;;;;;;13.23;66.73;101748.75;5089486;28;20107;-55
2021/10/01 00:55:14;;;;;;;4.32;1.63;;;;;;;13.26;66.46;101743.50;5085636;28;20834;-55
2021/10/01 00:57:39;;;;;;;5.85;1.40;;;;;;;13.25;66.48;101752.28;5090304;28;20040;-58
2021/10/01 01:00:07;;;;;;;5.15;1.60;;;;;;;13.30;66.25;101752.31;5092230;28;20032;-55
2021/10/01 01:02:32;;;;;;;2.97;1.23;;;;;;;13.29;66.53;101748.78;5114543;28;20040;-57
2021/10/01 01:04:58;;;;;;;9.98;1.70;;;;;;;13.30;66.39;101747.94;5087272;28;20038;-55
2021/10/01 01:07:39;;;;;;;6.28;1.40;;;;;;;13.30;66.24;101739.09;5103271;28;20117;-57
2021/10/01 01:10:24;;;;;;;3.55;1.55;;;;;;;13.21;66.78;101726.75;5103740;28;20063;-57
2021/10/01 01:13:48;;;;;;;5.47;1.50;;;;;;;13.19;66.49;101721.47;5073921;28;20064;-55
2021/10/01 01:16:24;;;;;;;3.58;1.75;;;;;;;13.26;66.04;101730.31;5010903;28;20041;-56
2021/10/01 01:18:52;;;;;;;6.05;1.25;;;;;;;13.21;66.29;101734.69;5016654;28;20053;-55
2021/10/01 01:21:53;;;;;;;4.80;1.35;;;;;;;13.19;66.68;101729.41;5015877;28;20050;-57
2021/10/01 01:24:36;;;;;;;3.45;1.50;;;;;;;13.18;66.33;101727.66;5019157;28;20038;-57
2021/10/01 01:27:20;;;;;;;10.80;1.52;;;;;;;13.17;66.17;101717.09;5005695;28;20530;-55
2021/10/01 01:29:56;;;;;;;7.05;1.50;;;;;;;13.22;65.73;101718.84;5018411;28;20038;-58
2021/10/01 01:32:24;;;;;;;6.90;1.73;;;;;;;13.16;65.97;101712.69;5005561;28;20565;-55
2021/10/01 01:34:54;;;;;;;3.85;1.35;;;;;;;13.17;65.99;101704.75;5004746;28;20042;-56
2021/10/01 01:37:37;;;;;;;7.50;1.73;;;;;;;13.22;65.68;101700.38;5016895;28;20038;-55
2021/10/01 01:40:05;;;;;;;4.13;1.20;;;;;;;13.23;65.60;101699.50;5018251;28;20627;-58
2021/10/01 01:42:31;;;;;;;4.32;1.70;;;;;;;13.23;65.79;101701.25;5017674;28;20061;-55
2021/10/01 01:44:59;;;;;;;7.10;1.70;;;;;;;13.19;65.84;101692.44;5019430;28;20037;-55
2021/10/01 01:47:25;;;;;;;5.72;1.73;;;;;;;13.21;65.92;101700.38;5072283;28;20059;-57
2021/10/01 01:49:53;;;;;;;4.55;1.83;;;;;;;13.16;65.97;101692.47;5094250;28;20036;-57
2021/10/01 01:52:20;;;;;;;4.40;1.80;;;;;;;13.19;65.93;101688.94;5099533;28;20156;-55
2021/10/01 01:54:48;;;;;;;8.60;1.60;;;;;;;13.17;65.97;101685.41;5105756;28;20039;-57
2021/10/01 01:57:15;;;;;;;4.65;1.48;;;;;;;13.23;65.66;101688.06;5093035;28;20053;-58
2021/10/01 01:59:42;;;;;;;5.88;1.60;;;;;;;13.20;65.75;101670.47;5100856;28;20050;-54
2021/10/01 02:02:08;;;;;;;4.95;1.63;;;;;;;13.18;66.08;101663.44;5101294;28;20039;-57
2021/10/01 02:04:35;;;;;;;7.30;2.03;;;;;;;13.20;65.99;101665.19;5107108;28;20055;-57
2021/10/01 02:07:02;;;;;;;3.42;1.35;;;;;;;13.21;65.66;101669.59;5112929;28;20086;-57
2021/10/01 02:09:31;;;;;;;8.75;1.50;;;;;;;13.17;65.90;101657.25;5101137;28;20111;-55
2021/10/01 02:11:57;;;;;;;6.82;1.85;;;;;;;13.17;65.74;101657.25;5102908;28;20074;-56
2021/10/01 02:14:27;;;;;;;5.18;1.40;;;;;;;13.21;65.53;101653.78;5100941;28;20047;-54
2021/10/01 02:16:55;;;;;;;5.50;1.50;;;;;;;13.20;65.83;101645.84;5089588;28;20028;-57
2021/10/01 02:19:24;;;;;;;8.88;1.67;;;;;;;13.22;65.38;101647.59;5085696;28;20047;-57
2021/10/01 02:21:50;;;;;;;5.45;1.70;;;;;;;13.19;65.73;101644.06;5110097;28;20035;-57
2021/10/01 02:24:17;;;;;;;5.03;1.75;;;;;;;13.18;65.49;101637.94;5088707;28;20036;-53
2021/10/01 02:26:50;;;;;;;4.68;1.58;;;;;;;13.19;65.57;101636.16;5110055;28;20078;-54
2021/10/01 02:29:23;;;;;;;4.13;1.42;;;;;;;13.24;65.22;101635.28;5111585;28;20100;-55
2021/10/01 02:32:17;;;;;;;8.23;1.75;;;;;;;13.29;65.20;101631.75;5095351;28;20127;-57
2021/10/01 02:34:45;;;;;;;5.13;1.67;;;;;;;13.28;65.33;101622.97;5099098;28;20501;-58
2021/10/01 02:37:11;;;;;;;6.75;1.48;;;;;;;13.26;65.28;101616.81;5106262;28;20015;-55
2021/10/01 02:39:40;;;;;;;6.55;2.33;;;;;;;13.31;64.88;101601.00;5097622;28;20036;-57
2021/10/01 02:42:08;;;;;;;6.80;1.80;;;;;;;13.21;65.52;101603.63;5098962;28;20031;-56
2021/10/01 02:44:34;;;;;;;7.38;1.70;;;;;;;13.15;65.71;101598.34;5112234;28;20023;-56
2021/10/01 02:46:59;;;;;;;3.55;1.42;;;;;;;13.07;66.33;101598.34;5092516;28;20023;-55
2021/10/01 02:49:25;;;;;;;3.22;1.20;;;;;;;13.03;66.04;101583.41;5103635;28;20025;-56
2021/10/01 02:51:55;;;;;;;6.30;1.75;;;;;;;13.01;66.28;101581.66;5095085;28;20092;-56
2021/10/01 02:54:29;;;;;;;8.32;1.55;;;;;;;13.10;65.76;101586.03;5100169;28;20035;-56
2021/10/01 02:57:12;;;;;;;5.00;1.42;;;;;;;13.06;66.12;101575.50;5081636;28;20039;-55
2021/10/01 02:59:41;;;;;;;3.80;1.60;;;;;;;13.06;66.21;101572.84;5102690;28;20028;-58
2021/10/01 03:02:09;;;;;;;6.82;1.63;;;;;;;13.10;65.97;101579.00;5095280;28;20043;-56
2021/10/01 03:04:35;;;;;;;6.13;1.70;;;;;;;13.07;66.14;101576.34;5089554;28;20035;-56
2021/10/01 03:07:03;;;;;;;6.10;1.45;;;;;;;13.06;66.25;101570.22;5081581;28;20035;-56
2021/10/01 03:09:29;;;;;;;6.30;1.85;;;;;;;13.08;66.27;101562.31;5091037;28;20107;-55
2021/10/01 03:11:58;;;;;;;3.72;1.58;;;;;;;12.99;66.27;101557.03;5104876;28;20905;-57
2021/10/01 03:14:23;;;;;;;5.90;1.65;;;;;;;12.95;66.48;101558.78;5107270;28;20035;-57
2021/10/01 03:16:51;;;;;;;6.20;1.67;;;;;;;12.91;66.92;101556.13;5101984;28;20039;-56
2021/10/01 03:19:22;;;;;;;3.88;1.42;;;;;;;12.83;67.37;101553.50;5088935;28;20083;-57
2021/10/01 03:21:51;;;;;;;5.57;1.30;;;;;;;12.84;67.44;101542.06;5099951;28;20036;-57
2021/10/01 03:24:19;;;;;;;6.95;1.80;;;;;;;12.85;67.05;101542.09;5094413;28;20055;-57
2021/10/01 03:26:44;;;;;;;5.97;1.85;;;;;;;12.81;66.99;101534.16;5093285;28;20084;-56
2021/10/01 03:29:11;;;;;;;5.75;1.55;;;;;;;12.78;67.90;101540.31;5093554;28;20036;-56
2021/10/01 03:31:37;;;;;;;6.68;1.70;;;;;;;12.84;67.15;101535.03;5093896;28;20033;-59
2021/10/01 03:34:02;;;;;;;5.78;1.60;;;;;;;12.84;66.93;101529.75;5101708;28;20029;-55
2021/10/01 03:36:28;;;;;;;5.40;1.75;;;;;;;12.78;67.49;101528.88;5087970;28;20181;-57
2021/10/01 03:38:55;;;;;;;8.68;1.60;;;;;;;12.81;67.29;101528.88;5103958;28;20024;-53
2021/10/01 03:41:20;;;;;;;8.95;1.60;;;;;;;12.80;67.45;101529.78;5099623;28;20035;-56
2021/10/01 03:43:46;;;;;;;5.30;1.50;;;;;;;12.79;67.67;101528.00;5092832;28;20028;-59
2021/10/01 03:46:11;;;;;;;2.78;1.33;;;;;;;12.75;67.90;101529.75;5089536;28;20062;-54
2021/10/01 03:48:36;;;;;;;4.88;1.50;;;;;;;12.70;67.67;101523.59;5083827;28;20017;-53
2021/10/01 03:51:02;;;;;;;5.72;1.80;;;;;;;12.63;67.67;101514.81;5088513;28;20032;-57
2021/10/01 03:53:28;;;;;;;6.72;2.25;;;;;;;12.67;67.58;101505.16;5094533;28;20041;-55
2021/10/01 03:55:53;;;;;;;6.38;1.50;;;;;;;12.70;67.77;101513.03;5093108;28;20052;-55
2021/10/01 03:58:18;;;;;;;7.18;1.45;;;;;;;12.68;67.72;101506.88;5098998;28;20048;-56
2021/10/01 04:00:45;;;;;;;5.10;1.50;;;;;;;12.60;67.50;101508.66;5098665;28;20103;-56
2021/10/01 04:03:13;;;;;;;4.80;1.45;;;;;;;12.58;67.88;101502.50;5084389;28;20039;-55
2021/10/01 04:05:40;;;;;;;4.60;1.52;;;;;;;12.50;68.39;101509.53;5094699;28;20044;-58
2021/10/01 04:08:10;;;;;;;8.90;2.00;;;;;;;12.47;68.82;101506.00;5104152;28;20047;-55
2021/10/01 04:10:36;;;;;;;7.75;1.80;;;;;;;12.48;68.58;101517.44;5088301;28;20112;-57
2021/10/01 04:13:03;;;;;;;5.82;1.55;;;;;;;12.52;68.32;101510.41;5099061;28;20060;-56
2021/10/01 04:15:28;;;;;;;4.15;1.30;;;;;;;12.53;68.53;101517.44;5110418;28;20032;-56
2021/10/01 04:17:53;;;;;;;4.45;1.20;;;;;;;12.51;68.91;101514.78;5078617;28;20074;-55
2021/10/01 04:20:19;;;;;;;6.30;1.20;;;;;;;12.49;68.72;101508.63;5091848;28;20044;-57
2021/10/01 04:22:44;;;;;;;9.15;1.90;;;;;;;12.47;69.01;101507.75;5092716;28;20058;-58
2021/10/01 04:25:10;;;;;;;4.45;1.48;;;;;;;12.48;68.75;101509.53;5098729;28;20100;-57
2021/10/01 04:27:35;;;;;;;6.43;1.63;;;;;;;12.48;68.71;101513.03;5099380;28;20025;-57
2021/10/01 04:30:00;;;;;;;8.50;1.73;;;;;;;12.39;69.01;101507.75;5100505;28;20420;-58
2021/10/01 04:32:26;;;;;;;4.88;2.03;;;;;;;12.34;69.22;101508.63;5090556;28;20033;-56
2021/10/01 04:35:03;;;;;;;9.73;1.70;;;;;;;12.35;69.00;101511.28;5099619;28;20541;-55
2021/10/01 04:37:29;;;;;;;4.72;1.60;;;;;;;12.32;69.56;101505.09;5099325;28;20024;-55
2021/10/01 04:39:54;;;;;;;4.15;1.63;;;;;;;12.31;69.29;101498.97;5094992;28;20046;-56
2021/10/01 04:42:20;;;;;;;4.65;1.40;;;;;;;12.37;69.35;101509.50;5100540;28;20020;-58
2021/10/01 04:44:46;;;;;;;7.07;1.90;;;;;;;12.35;69.42;101510.41;5094330;28;20061;-56
2021/10/01 04:47:11;;;;;;;6.85;1.90;;;;;;;12.37;69.26;101509.50;5076699;28;20028;-57
2021/10/01 04:49:37;;;;;;;5.65;1.52;;;;;;;12.37;69.28;101508.63;5095829;28;20091;-57
2021/10/01 04:52:03;;;;;;;7.30;1.80;;;;;;;12.40;69.41;101508.63;5091604;28;20032;-56
2021/10/01 04:54:28;;;;;;;8.07;1.50;;;;;;;12.39;69.27;101505.13;5096327;28;20028;-57
2021/10/01 04:56:53;;;;;;;4.30;1.80;;;;;;;12.38;69.21;101505.09;5097631;28;20032;-57
2021/10/01 04:59:19;;;;;;;4.95;1.70;;;;;;;12.41;69.59;101497.22;5098357;28;20058;-55
2021/10/01 05:01:44;;;;;;;6.28;1.80;;;;;;;12.40;69.13;101492.81;5096413;28;20054;-56
2021/10/01 05:04:09;;;;;;;4.15;1.73;;;;;;;12.38;69.21;101497.19;5094357;28;20032;-55
2021/10/01 05:06:35;;;;;;;3.42;2.10;;;;;;;12.38;69.33;101498.09;5098730;28;20035;-57
2021/10/01 05:09:00;;;;;;;5.93;1.85;;;;;;;12.36;69.61;101498.97;5091804;28;20040;-56
2021/10/01 05:11:26;;;;;;;9.23;1.70;;;;;;;12.37;69.49;101495.47;5093782;28;20066;-53
2021/10/01 05:13:51;;;;;;;6.65;1.85;;;;;;;12.32;69.60;101497.19;5077637;28;20035;-57
2021/10/01 05:16:17;;;;;;;4.38;1.80;;;;;;;12.32;69.31;101498.06;5104188;28;20031;-56
2021/10/01 05:18:42;;;;;;;8.65;1.60;;;;;;;12.32;70.10;101491.94;5105414;28;20028;-55
2021/10/01 05:21:07;;;;;;;7.15;1.88;;;;;;;12.35;69.48;101479.66;5095152;28;20062;-54
2021/10/01 05:23:33;;;;;;;8.23;1.83;;;;;;;12.38;69.57;101489.28;5095692;28;20088;-54
2021/10/01 05:25:58;;;;;;;3.25;1.58;;;;;;;12.34;69.70;101482.28;5095195;28;20033;-56
2021/10/01 05:28:24;;;;;;;5.07;1.77;;;;;;;12.32;70.15;101487.53;5096043;28;20028;-57
2021/10/01 05:30:49;;;;;;;5.97;1.85;;;;;;;12.36;69.75;101485.78;5098752;28;20043;-56
2021/10/01 05:33:15;;;;;;;5.63;1.75;;;;;;;12.35;69.46;101481.41;5099019;28;20030;-56
2021/10/01 05:35:43;;;;;;;3.97;1.67;;;;;;;12.36;69.60;101481.41;5097518;28;20058;-56
2021/10/01 05:38:09;;;;;;;6.57;1.90;;;;;;;12.38;69.27;101473.50;5102042;28;20028;-56
2021/10/01 05:40:36;;;;;;;6.07;2.03;;;;;;;12.37;69.95;101485.78;5095319;28;20080;-57
2021/10/01 05:43:02;;;;;;;6.65;1.90;;;;;;;12.35;69.92;101479.66;5097789;28;20111;-58
2021/10/01 05:45:28;;;;;;;7.90;1.60;;;;;;;12.39;69.86;101480.53;5095090;28;20035;-55
2021/10/01 05:47:53;;;;;;;4.72;1.85;;;;;;;12.43;70.03;101477.88;5099289;28;20031;-55
2021/10/01 05:50:20;;;;;;;4.30;1.73;;;;;;;12.45;70.00;101481.41;5110197;28;20043;-57
2021/10/01 05:52:55;;;;;;;5.95;1.83;;;;;;;12.45;69.60;101469.97;5123346;28;20031;-55
2021/10/01 05:55:20;;;;;;;8.18;1.85;;;;;;;12.50;69.61;101468.25;5104285;28;20028;-56
2021/10/01 05:57:46;;;;;;;6.30;1.90;;;;;;;12.46;69.61;101462.09;5086943;28;20032;-56
2021/10/01 06:00:12;;;;;;;6.95;1.52;;;;;;;12.47;69.66;101463.81;5086834;28;20082;-56
2021/10/01 06:02:40;;;;;;;8.32;1.80;;;;;;;12.48;69.67;101462.97;5107006;28;20123;-59
2021/10/01 06:05:06;;;;;;;6.47;1.83;;;;;;;12.48;69.38;101462.09;5098180;28;20120;-58
2021/10/01 06:07:31;;;;;;;7.25;1.90;;;;;;;12.45;69.71;101464.72;5094099;28;20071;-57
2021/10/01 06:09:57;;;;;;;4.82;1.52;;;;;;;12.48;69.56;101457.69;5090987;28;20770;-59
2021/10/01 06:12:22;;;;;;;5.63;1.83;;;;;;;12.47;69.57;101455.91;5099813;28;20040;-59
2021/10/01 06:14:48;;;;;;;3.67;1.55;;;;;;;12.48;69.81;101457.69;5104846;28;20024;-58
2021/10/01 06:17:15;;;;;;;5.60;2.05;;;;;;;12.43;69.74;101450.66;5071616;28;20032;-57
2021/10/01 06:19:42;;;;;;;6.22;1.90;;;;;;;12.46;69.73;101455.94;5090618;28;20549;-59
2021/10/01 06:22:08;;;;;;;4.22;1.55;;;;;;;12.43;70.57;101453.28;5096117;28;20054;-59
2021/10/01 06:24:34;;;;;;;3.85;1.75;;;;;;;12.43;70.20;101450.66;5109187;28;20384;-58
2021/10/01 06:27:00;;;;;;;7.80;1.80;;;;;;;12.45;70.23;101448.91;5095720;28;20138;-59
2021/10/01 06:29:25;;;;;;;7.22;1.80;;;;;;;12.52;69.76;101452.44;5112475;28;20387;-58
2021/10/01 06:31:51;;;;;;;4.32;1.23;;;;;;;12.51;70.20;101455.94;5103400;28;20035;-59
2021/10/01 06:34:17;;;;;;;4.18;1.65;;;;;;;12.55;70.30;101460.31;5099139;28;20027;-59
2021/10/01 06:36:43;;;;;;;5.43;1.50;;;;;;;12.56;70.04;101449.78;5090796;28;20043;-59
2021/10/01 06:39:09;;;;;;;4.93;1.88;;;;;;;12.62;69.75;101457.69;5101542;28;20043;-57
2021/10/01 06:41:35;;;;;;;6.60;1.75;;;;;;;12.74;69.27;101453.28;5085539;28;20043;-58
2021/10/01 06:44:04;;;;;;;9.50;1.58;;;;;;;12.68;69.41;101449.78;5101959;28;20099;-59
2021/10/01 08:18:21;;;;;;;8.40;1.60;;;;;;;13.32;68.76;101441.75;5023945;28;20175;-59
2021/10/01 08:19:00;;;;;;;6.40;1.77;;;;;;;13.60;69.54;101427.56;5063112;28;20051;-60
2021/10/01 08:21:26;;;;;;;6.15;1.58;;;;;;;13.73;69.37;101425.75;5103900;28;20040;-60
2021/10/01 08:23:56;;;;;;;8.75;1.67;;;;;;;13.83;68.34;101432.72;5106896;28;20089;-60
2021/10/01 08:26:22;;;;;;;7.07;1.60;;;;;;;13.86;68.17;101423.91;5092689;28;20088;-59
2021/10/01 08:28:47;;;;;;;6.50;1.90;;;;;;;13.83;67.96;101422.16;5119729;28;20039;-60
2021/10/01 08:31:13;;;;;;;5.35;1.33;;;;;;;13.98;68.19;101433.53;5101683;28;20044;-59
2021/10/01 08:33:38;;;;;;;4.07;1.40;;;;;;;14.09;68.15;101420.25;5127256;28;20437;-60
2021/10/01 08:36:04;;;;;;;3.72;1.50;;;;;;;14.12;67.26;101425.50;5103915;28;20043;-60
2021/10/01 08:38:29;;;;;;;6.35;1.50;;;;;;;14.14;67.82;101414.03;5095977;28;20028;-60
2021/10/01 08:40:55;;;;;;;4.70;1.40;;;;;;;14.08;67.26;101416.69;5104111;28;20077;-60
2021/10/01 08:43:23;;;;;;;4.38;1.30;;;;;;;14.22;67.66;101408.69;5096708;28;20040;-59
2021/10/01 08:45:49;;;;;;;4.60;1.52;;;;;;;14.36;67.00;101417.38;5096057;28;20124;-60
2021/10/01 08:48:14;;;;;;;5.80;1.50;;;;;;;14.54;66.68;101411.06;5118116;28;20046;-59
2021/10/01 08:50:40;;;;;;;4.55;1.80;;;;;;;14.59;66.29;101414.59;5104992;28;20040;-59
2021/10/01 08:53:09;;;;;;;4.68;1.70;;;;;;;14.66;66.02;101412.75;5097028;28;20132;-60
2021/10/01 08:55:36;;;;;;;8.70;1.60;;;;;;;14.76;65.48;101421.47;5102020;28;20127;-60
2021/10/01 08:58:02;;;;;;;5.18;1.75;;;;;;;14.78;65.85;101417.03;5097348;28;20486;-59
2021/10/01 09:00:27;;;;;;;3.35;1.63;;;;;;;14.86;65.83;101417.84;5095347;28;20032;-59
2021/10/01 09:02:53;;;;;;;5.60;1.52;;;;;;;14.93;65.44;101410.72;5117194;28;20061;-59
2021/10/01 09:05:18;;;;;;;3.75;1.35;;;;;;;14.85;66.26;101416.09;5094724;28;20127;-62
2021/10/01 09:07:44;;;;;;;7.22;1.70;;;;;;;14.82;66.06;101413.50;5096462;28;20059;-60
2021/10/01 09:10:11;;;;;;;5.30;1.48;;;;;;;14.77;66.12;101412.66;5101989;28;20135;-60
2021/10/01 09:12:37;;;;;;;7.03;1.40;;;;;;;14.80;66.64;101410.84;5104790;28;20031;-59
2021/10/01 09:15:04;;;;;;;7.78;1.48;;;;;;;14.82;66.19;101405.56;5126762;28;20031;-60
2021/10/01 09:17:33;;;;;;;4.30;1.33;;;;;;;14.79;66.45;101405.56;5103654;28;20032;-60
2021/10/01 09:19:59;;;;;;;5.15;1.38;;;;;;;14.87;66.01;101406.34;5084476;28;20084;-59
2021/10/01 09:22:36;;;;;;;4.78;1.60;;;;;;;14.88;65.65;101407.25;5089288;28;20127;-61
2021/10/01 09:25:17;;;;;;;7.28;1.60;;;;;;;14.79;66.57;101406.44;5107274;28;20020;-60
2021/10/01 09:27:46;;;;;;;4.15;1.40;;;;;;;14.72;66.35;101412.69;5107671;28;20061;-59
2021/10/01 09:30:13;;;;;;;5.82;1.65;;;;;;;14.74;66.95;101399.44;5100232;28;20505;-60
2021/10/01 09:32:40;;;;;;;5.50;1.90;;;;;;;14.78;66.82;101402.06;5109531;28;20035;-60
2021/10/01 09:35:15;;;;;;;7.55;1.60;;;;;;;14.83;67.03;101402.00;5113381;28;20036;-60
2021/10/01 09:37:41;;;;;;;7.97;1.75;;;;;;;14.85;66.56;101396.69;5102446;28;20070;-59
2021/10/01 09:40:07;;;;;;;4.20;1.20;;;;;;;14.89;66.94;101395.75;5107629;28;20020;-60
2021/10/01 09:42:46;;;;;;;3.90;1.55;;;;;;;14.93;66.42;101389.53;5105356;28;20054;-60
2021/10/01 09:45:14;;;;;;;6.70;1.65;;;;;;;14.80;66.94;101392.34;5097717;28;20036;-61
2021/10/01 09:47:49;;;;;;;7.43;1.58;;;;;;;14.77;66.71;101392.34;5112804;28;20190;-60
2021/10/01 09:50:36;;;;;;;6.57;1.50;;;;;;;14.76;67.27;101384.44;5095352;28;20828;-59
2021/10/01 09:53:06;;;;;;;9.80;1.98;;;;;;;14.62;68.71;101379.28;5078660;28;20031;-60
2021/10/01 09:55:39;;;;;;;9.68;1.75;;;;;;;14.57;68.61;101383.75;5103318;28;20034;-60
2021/10/01 09:58:17;;;;;;;8.13;2.17;;;;;;;14.59;68.60;101382.84;5102685;28;20070;-59
2021/10/01 10:00:47;;;;;;;7.10;1.58;;;;;;;14.52;68.81;101375.81;5115544;28;20031;-59
2021/10/01 10:03:13;;;;;;;;;;;;;;;14.55;68.85;101380.19;5126084;28;20091;-59
2021/10/01 10:05:56;;;;;;;8.48;2.10;;;;;;;14.48;69.47;101389.06;5111014;28;19917;-60
2021/10/01 10:08:36;;;;;;;6.95;1.67;;;;;;;14.49;69.09;101380.25;5103747;28;20115;-59
2021/10/01 10:11:04;;;;;;;4.18;1.50;;;;;;;14.44;69.68;101382.94;5104525;28;20028;-60
2021/10/01 10:13:39;;;;;;;4.95;1.75;;;;;;;14.33;70.96;101390.09;5106206;28;20024;-59
2021/10/01 10:16:23;;;;;;;3.22;1.50;;;;;;;14.26;71.97;101391.06;5094337;28;20096;-58
2021/10/01 10:18:52;;;;;;;4.93;1.65;;;;;;;14.19;73.40;101390.19;5087412;28;20032;-60
2021/10/01 10:21:18;;;;;;;9.00;1.88;;;;;;;14.13;74.16;101387.63;5092400;28;20106;-60
2021/10/01 10:23:45;;;;;;;10.40;2.22;;;;;;;14.21;74.58;101385.78;5078154;28;20039;-60
2021/10/01 10:26:11;;;;;;;6.45;2.58;;;;;;;14.05;75.80;101387.69;5086097;28;20051;-60
2021/10/01 10:28:39;;;;;;;3.67;2.20;;;;;;;13.93;77.54;101386.00;5089199;28;20108;-60
2021/10/01 10:31:05;;;;;;;9.70;2.35;;;;;;;13.91;77.07;101382.47;5084824;28;20055;-60
2021/10/01 10:33:45;;;;;;;7.22;2.00;;;;;;;13.83;77.26;101381.66;5087668;28;20025;-59
2021/10/01 10:36:37;;;;;;;7.30;2.47;;;;;;;13.82;77.85;101385.19;5092017;28;20028;-59
2021/10/01 10:39:19;;;;;;;5.80;2.47;;;;;;;13.80;78.31;101381.69;5107404;28;20085;-60
2021/10/01 10:41:47;;;;;;;5.68;2.22;;;;;;;13.79;78.71;101377.28;5090928;28;20132;-59
2021/10/01 10:44:14;;;;;;;6.50;2.67;;;;;;;13.73;80.04;101367.63;5102989;28;20031;-59
2021/10/01 10:46:40;;;;;;;6.18;2.22;;;;;;;13.75;79.67;101365.88;5108815;28;20046;-59
2021/10/01 10:49:18;;;;;;;5.57;2.63;;;;;;;13.70;80.67;101367.66;5099861;28;20100;-60
2021/10/01 10:52:23;;;;;;;9.18;3.20;;;;;;;13.60;80.50;101368.59;5099601;28;20032;-60
2021/10/01 10:55:09;;;;;;;7.15;2.90;;;;;;;13.46;81.59;101366.03;5092238;28;20054;-59
2021/10/01 10:57:37;;;;;;;5.70;3.03;;;;;;;13.34;82.47;101369.59;5107193;28;20093;-60
2021/10/01 11:00:29;;;;;;;8.80;3.72;;;;;;;13.38;82.59;101367.81;5095491;28;20029;-60
2021/10/01 11:03:17;;;;;;;8.13;2.70;;;;;;;13.39;82.16;101364.31;5084133;28;20028;-60
2021/10/01 11:05:43;;;;;;;6.63;3.00;;;;;;;13.37;82.77;101369.59;5095998;28;20122;-60
2021/10/01 11:08:22;;;;;;;7.53;2.85;;;;;;;13.42;82.30;101367.81;5101900;28;20040;-59
2021/10/01 11:10:49;;;;;;;6.78;2.80;;;;;;;13.41;82.71;101366.06;5094041;28;20484;-60
2021/10/01 11:13:18;;;;;;;12.57;3.40;;;;;;;13.44;82.10;101358.13;5097715;28;20935;-60
2021/10/01 11:16:09;;;;;;;7.28;2.60;;;;;;;13.56;81.82;101364.22;5096685;28;20028;-61
2021/10/01 11:18:55;;;;;;;8.93;3.33;;;;;;;13.58;82.56;101359.81;5091047;28;20024;-60
2021/10/01 11:21:27;;;;;;;5.70;2.20;;;;;;;13.69;80.96;101365.03;5092261;28;20104;-61
2021/10/01 11:24:10;;;;;;;6.40;2.35;;;;;;;13.77;81.09;101353.53;5091683;28;20052;-60
2021/10/01 11:26:37;;;;;;;3.75;2.08;;;;;;;13.82;81.46;101342.94;5096350;28;20036;-58
2021/10/01 11:29:05;;;;;;;7.25;2.45;;;;;;;13.87;80.34;101343.75;5083461;28;20032;-59
2021/10/01 11:31:41;;;;;;;6.90;2.90;;;;;;;13.93;80.64;101337.56;5097018;28;20039;-59
2021/10/01 11:34:07;;;;;;;6.65;2.38;;;;;;;13.96;80.73;101342.81;5095333;28;20043;-60
2021/10/01 11:36:36;;;;;;;7.20;2.55;;;;;;;13.96;80.04;101346.34;5098155;28;20024;-60
2021/10/01 11:39:15;;;;;;;4.80;2.25;;;;;;;14.04;80.35;101343.63;5097816;28;20627;-59
2021/10/01 11:41:45;;;;;;;6.53;2.60;;;;;;;14.10;80.27;101335.69;5096463;28;20078;-60
2021/10/01 11:44:13;;;;;;;8.05;2.60;;;;;;;14.15;79.36;101341.78;5092812;28;20020;-59
2021/10/01 11:46:49;;;;;;;6.70;2.38;;;;;;;14.22;79.08;101330.28;5098644;28;20083;-59
2021/10/01 11:49:31;;;;;;;4.70;2.10;;;;;;;14.31;79.89;101334.59;5092048;28;20039;-60
2021/10/01 11:52:03;;;;;;;5.13;2.38;;;;;;;14.35;78.69;101328.41;5095524;28;20033;-55
2021/10/01 11:54:29;;;;;;;6.30;2.42;;;;;;;14.44;78.96;101327.41;5095212;28;20024;-60
2021/10/01 11:57:00;;;;;;;5.22;2.20;;;;;;;14.55;78.27;101329.97;5091439;28;20115;-59
2021/10/01 11:59:48;;;;;;;5.85;1.95;;;;;;;14.62;77.55;101323.75;5089848;28;20036;-62
2021/10/01 12:02:32;;;;;;;5.25;2.35;;;;;;;14.65;76.87;101320.19;5093684;28;20040;-55
2021/10/01 12:04:58;;;;;;;6.30;2.33;;;;;;;14.69;77.87;101313.97;5101691;28;20031;-57
2021/10/01 12:07:24;;;;;;;6.47;2.33;;;;;;;14.72;78.23;101322.75;5105886;28;20114;-59
2021/10/01 12:10:07;;;;;;;7.25;2.00;;;;;;;14.77;77.37;101322.72;5106419;28;20048;-59
2021/10/01 12:12:33;;;;;;;4.38;1.90;;;;;;;14.82;76.87;101318.25;5098474;28;20054;-57
2021/10/01 12:14:59;;;;;;;7.13;2.10;;;;;;;14.79;76.81;101311.19;5113193;28;20027;-58
2021/10/01 12:17:24;;;;;;;10.55;2.80;;;;;;;14.82;76.12;101307.66;5107398;28;20028;-59
2021/10/01 12:19:50;;;;;;;5.03;1.98;;;;;;;14.87;75.11;101300.53;5102626;28;20028;-59
2021/10/01 12:22:16;;;;;;;7.10;2.33;;;;;;;14.89;75.40;101311.09;5100726;28;20032;-59
2021/10/01 12:24:52;;;;;;;6.40;2.50;;;;;;;14.91;75.27;101309.31;5094903;28;20039;-58
2021/10/01 12:27:20;;;;;;;7.75;2.00;;;;;;;14.96;75.16;101295.13;5106353;28;20048;-58
2021/10/01 12:29:49;;;;;;;7.70;2.50;;;;;;;14.99;75.17;101299.53;5096692;28;20385;-59
2021/10/01 12:32:17;;;;;;;6.00;2.27;;;;;;;15.10;74.16;101302.00;5117873;28;20065;-57
2021/10/01 12:34:50;;;;;;;6.03;2.25;;;;;;;15.01;75.25;101303.88;5098692;28;20035;-56
2021/10/01 12:37:21;;;;;;;6.63;2.08;;;;;;;15.04;74.94;101310.03;5107267;28;20020;-56
2021/10/01 12:39:51;;;;;;;7.97;2.63;;;;;;;15.02;74.89;101320.63;5096361;28;20036;-56
2021/10/01 12:42:21;;;;;;;;;;;;;;;15.00;75.39;101314.50;5109470;28;20028;-56
2021/10/01 12:45:06;;;;;;;4.32;2.17;;;;;;;14.95;75.17;101301.31;5121667;28;20045;-58
2021/10/01 12:47:37;;;;;;;8.65;2.20;;;;;;;14.92;75.36;101311.94;5104290;28;20028;-59
2021/10/01 12:50:10;;;;;;;10.82;2.92;;;;;;;14.86;77.25;101311.13;5095400;28;20488;-56
2021/10/01 12:52:38;;;;;;;10.80;2.47;;;;;;;14.81;77.30;101314.72;5116134;28;20035;-57
2021/10/01 12:55:14;;;;;;;6.72;2.40;;;;;;;14.78;77.65;101320.06;5098034;28;20028;-55
2021/10/01 12:57:45;;;;;;;9.55;2.95;;;;;;;14.75;77.61;101314.78;5104549;28;20024;-58
2021/10/01 13:00:28;;;;;;;6.22;2.97;;;;;;;14.66;79.49;101319.31;5094872;28;20052;-58
2021/10/01 13:03:02;;;;;;;8.40;3.40;;;;;;;14.65;79.72;101315.78;5096622;28;20044;-60
2021/10/01 13:05:39;;;;;;;6.35;2.90;;;;;;;14.56;80.78;101310.56;5111858;28;20026;-60
2021/10/01 13:08:04;;;;;;;8.27;3.15;;;;;;;14.43;81.22;101310.69;5117705;28;20436;-60